Time;durP1;ratioP1;P1;durP2;ratioP2;P2;SDS_P1;SDS_P2;PMS_P1;PMS_P2;Temp;Humidity;BMP_temperature;BMP_pressure;BME280_temperature;BME280_humidity;BME280_pressure;Samples;Min_cycle;Max_cycle;Signal;HPM_P1;HPM_P2
2021/11/30 00:02:00;;;;;;;24.70;16.30;;;77.70;2227.20;;;;;;5056463;28;20024;-74
2021/11/30 00:04:29;;;;;;;34.13;19.80;;;77.70;2227.20;;;;;;5068986;28;20128;-74
2021/11/30 00:06:57;;;;;;;30.00;17.60;;;77.70;2227.20;;;;;;5056188;28;20059;-74
2021/11/30 00:12:05;;;;;;;29.70;17.05;;;77.70;2227.20;;;;;;5074195;28;20025;-74
2021/11/30 00:14:31;;;;;;;28.25;18.33;;;77.60;2227.20;;;;;;5067684;28;20078;-74
2021/11/30 00:16:57;;;;;;;29.40;16.65;;;77.70;2227.20;;;;;;5072080;28;20029;-74
2021/11/30 00:19:24;;;;;;;31.20;19.80;;;77.70;2227.20;;;;;;5054828;28;20495;-74
2021/11/30 00:21:51;;;;;;;32.30;19.55;;;77.70;2227.20;;;;;;5050435;28;20404;-74
2021/11/30 00:24:16;;;;;;;31.98;17.65;;;77.60;2227.20;;;;;;5071783;28;20032;-74
2021/11/30 00:26:42;;;;;;;34.03;19.27;;;77.50;2227.20;;;;;;5074056;28;20065;-75
2021/11/30 00:29:08;;;;;;;28.20;17.83;;;77.50;2227.20;;;;;;5067240;28;20144;-74
2021/11/30 00:31:34;;;;;;;31.77;19.77;;;77.50;2227.20;;;;;;5056049;28;20036;-74
2021/11/30 00:33:59;;;;;;;29.63;17.65;;;77.50;2227.20;;;;;;5055377;28;20390;-74
2021/11/30 00:36:25;;;;;;;31.55;19.20;;;77.50;2227.20;;;;;;5073651;28;20034;-74
2021/11/30 00:38:51;;;;;;;33.80;19.92;;;77.40;2227.20;;;;;;5071773;28;20107;-74
2021/11/30 00:41:16;;;;;;;31.13;17.73;;;77.40;2227.20;;;;;;5072516;28;20073;-75
2021/11/30 00:43:42;;;;;;;27.98;18.10;;;77.40;2227.20;;;;;;5073919;28;20467;-74
2021/11/30 00:46:20;;;;;;;28.63;18.63;;;77.40;2227.20;;;;;;5055531;28;20380;-74
2021/11/30 00:48:46;;;;;;;35.58;17.25;;;77.40;2227.20;;;;;;5052925;28;20468;-74
2021/11/30 00:51:17;;;;;;;30.42;18.73;;;77.40;2227.20;;;;;;5073382;28;20085;-74
2021/11/30 00:53:45;;;;;;;27.33;16.02;;;77.40;2227.20;;;;;;5071507;28;20048;-74
2021/11/30 00:56:12;;;;;;;30.85;19.75;;;77.40;2227.20;;;;;;5049653;28;20064;-74
2021/11/30 00:58:39;;;;;;;30.77;18.70;;;77.40;2227.20;;;;;;5073342;28;20024;-74
2021/11/30 01:01:05;;;;;;;29.40;19.27;;;77.30;2227.20;;;;;;5072824;28;20043;-74
2021/11/30 01:03:32;;;;;;;29.17;17.92;;;77.30;2227.20;;;;;;5064014;28;20032;-74
2021/11/30 01:05:58;;;;;;;28.05;16.88;;;77.30;2227.20;;;;;;5046632;28;20081;-74
2021/11/30 01:08:23;;;;;;;28.52;16.92;;;77.30;2227.20;;;;;;5071591;28;20531;-73
2021/11/30 01:10:49;;;;;;;25.88;16.10;;;77.30;2227.20;;;;;;5070285;28;20034;-73
2021/11/30 01:13:16;;;;;;;27.23;16.95;;;77.30;2227.20;;;;;;5070015;28;20025;-73
2021/11/30 01:15:42;;;;;;;29.20;17.83;;;77.20;2227.20;;;;;;5072830;28;20052;-74
2021/11/30 01:18:08;;;;;;;30.55;16.58;;;77.10;2227.20;;;;;;5072873;28;20017;-74
2021/11/30 01:20:34;;;;;;;27.60;16.33;;;77.10;2227.20;;;;;;5073229;28;20094;-74
2021/11/30 01:23:00;;;;;;;29.27;18.08;;;77.10;2227.20;;;;;;5055433;28;20035;-74
2021/11/30 01:25:26;;;;;;;28.13;18.30;;;77.10;2227.20;;;;;;5072667;28;20379;-74
2021/11/30 01:27:52;;;;;;;29.38;17.70;;;77.10;2227.20;;;;;;5055088;28;20391;-74
2021/11/30 01:30:18;;;;;;;27.40;17.88;;;77.00;2227.20;;;;;;5072736;28;20021;-74
2021/11/30 01:32:45;;;;;;;26.02;17.50;;;77.00;2227.20;;;;;;5071627;28;20457;-74
2021/11/30 01:35:13;;;;;;;28.83;17.42;;;76.90;2227.20;;;;;;5072739;28;20052;-74
2021/11/30 01:37:40;;;;;;;30.48;17.92;;;76.90;2227.20;;;;;;5072892;28;20024;-74
2021/11/30 01:40:09;;;;;;;30.00;18.00;;;76.90;2227.20;;;;;;5072500;28;20021;-74
2021/11/30 01:42:35;;;;;;;31.75;18.67;;;76.80;2227.20;;;;;;5053259;28;20028;-74
2021/11/30 01:45:07;;;;;;;33.80;17.67;;;76.80;2227.20;;;;;;5071684;28;20384;-73
2021/11/30 01:50:07;;;;;;;29.48;16.73;;;76.80;2227.20;;;;;;5069979;28;20036;-75
2021/11/30 01:52:33;;;;;;;31.20;18.27;;;77.00;2227.20;;;;;;5069758;28;20044;-75
2021/11/30 01:54:59;;;;;;;30.70;19.60;;;52.10;2227.20;;;;;;5054368;28;20027;-74
2021/11/30 01:57:26;;;;;;;32.03;18.98;;;52.10;2227.20;;;;;;5071118;28;20094;-75
2021/11/30 01:59:54;;;;;;;35.15;17.10;;;52.00;2227.20;;;;;;5071522;28;20013;-74
2021/11/30 02:02:20;;;;;;;27.30;16.83;;;52.00;2227.20;;;;;;5070582;28;20024;-75
2021/11/30 02:04:47;;;;;;;27.50;16.55;;;52.00;2227.20;;;;;;5071625;28;20025;-75
2021/11/30 02:07:13;;;;;;;29.50;16.92;;;52.00;2227.20;;;;;;5071844;28;20118;-74
2021/11/30 02:09:40;;;;;;;28.27;17.90;;;52.00;2227.20;;;;;;5070447;28;20426;-75
2021/11/30 02:12:08;;;;;;;28.90;18.13;;;52.00;2227.20;;;;;;5072111;28;20031;-75
2021/11/30 02:14:34;;;;;;;33.88;19.88;;;51.90;2227.20;;;;;;5053689;28;20048;-74
2021/11/30 02:17:01;;;;;;;27.83;17.70;;;51.90;2227.20;;;;;;5068034;28;20037;-74
2021/11/30 02:19:28;;;;;;;31.35;17.20;;;51.90;2227.20;;;;;;5053384;28;20024;-75
2021/11/30 02:21:55;;;;;;;27.98;18.27;;;51.90;2227.20;;;;;;5071632;28;20028;-74
2021/11/30 02:24:21;;;;;;;30.05;16.10;;;52.00;2227.20;;;;;;5068955;28;20821;-75
2021/11/30 02:26:46;;;;;;;31.38;16.95;;;52.10;2227.20;;;;;;5071161;28;20106;-75
2021/11/30 02:29:13;;;;;;;29.42;17.40;;;52.00;2227.20;;;;;;5073469;28;20467;-74
2021/11/30 02:31:45;;;;;;;28.02;16.73;;;52.00;2227.20;;;;;;5053493;28;20031;-74
2021/11/30 02:34:13;;;;;;;30.08;17.20;;;52.00;2227.20;;;;;;5046847;28;20418;-74
2021/11/30 02:39:12;;;;;;;27.52;17.80;;;52.00;2227.20;;;;;;5071449;28;20391;-74
2021/11/30 02:41:38;;;;;;;31.35;17.42;;;52.10;2227.20;;;;;;5070778;28;20082;-74
2021/11/30 02:44:06;;;;;;;34.35;18.50;;;52.10;2227.20;;;;;;5062694;28;20016;-73
2021/11/30 02:46:36;;;;;;;28.42;17.10;;;52.10;2227.20;;;;;;5068061;28;20067;-74
2021/11/30 02:49:05;;;;;;;31.75;17.60;;;52.10;2227.20;;;;;;5053391;28;20028;-74
2021/11/30 02:51:32;;;;;;;29.77;16.48;;;52.10;2227.20;;;;;;5068769;28;20025;-74
2021/11/30 02:54:00;;;;;;;30.25;17.48;;;52.10;2227.20;;;;;;5071144;28;20059;-75
2021/11/30 02:56:28;;;;;;;28.77;17.02;;;52.10;2227.20;;;;;;5071942;28;20459;-74
2021/11/30 02:58:55;;;;;;;27.55;16.58;;;52.00;2227.20;;;;;;5070251;28;20181;-74
2021/11/30 03:01:21;;;;;;;33.28;18.73;;;52.00;2227.20;;;;;;5054211;28;20495;-74
2021/11/30 03:03:47;;;;;;;25.58;16.40;;;52.00;2227.20;;;;;;5057868;28;20024;-74
2021/11/30 03:06:13;;;;;;;29.17;16.85;;;52.00;2227.20;;;;;;5051664;28;20081;-74
2021/11/30 03:08:40;;;;;;;28.38;16.75;;;52.00;2227.20;;;;;;5051971;28;20025;-74
2021/11/30 03:11:08;;;;;;;26.17;17.30;;;52.00;2227.20;;;;;;5057897;28;20032;-74
2021/11/30 03:13:34;;;;;;;27.15;16.70;;;52.00;2227.20;;;;;;5071831;28;20469;-75
2021/11/30 03:16:00;;;;;;;31.08;18.05;;;52.00;2227.20;;;;;;5053474;28;20032;-74
2021/11/30 03:18:26;;;;;;;30.55;18.80;;;52.00;2227.20;;;;;;5071772;28;20024;-75
2021/11/30 03:20:52;;;;;;;28.25;16.42;;;52.00;2227.20;;;;;;5051974;28;20029;-75
2021/11/30 03:23:17;;;;;;;27.52;18.23;;;52.00;2227.20;;;;;;5063763;28;20471;-74
2021/11/30 03:25:44;;;;;;;34.50;19.05;;;51.90;2227.20;;;;;;5053435;28;20036;-75
2021/11/30 03:28:10;;;;;;;30.20;18.95;;;51.90;2227.20;;;;;;5054124;28;20043;-74
2021/11/30 03:30:38;;;;;;;24.40;15.70;;;51.90;2227.20;;;;;;5075690;28;20048;-75
2021/11/30 03:35:48;;;;;;;30.02;16.30;;;51.90;2227.20;;;;;;5068999;28;20029;-75
2021/11/30 03:38:14;;;;;;;31.05;17.40;;;51.90;2227.20;;;;;;5055090;28;20391;-74
2021/11/30 03:40:40;;;;;;;33.78;17.55;;;51.90;2227.20;;;;;;5061412;28;20048;-75
2021/11/30 03:43:06;;;;;;;28.35;16.13;;;51.90;2227.20;;;;;;5056914;28;20028;-74
2021/11/30 03:45:32;;;;;;;29.35;18.30;;;51.90;2227.20;;;;;;5074921;28;20024;-74
2021/11/30 03:47:58;;;;;;;27.13;16.40;;;51.90;2227.20;;;;;;5073893;28;20025;-75
2021/11/30 03:50:24;;;;;;;26.67;17.70;;;51.90;2227.20;;;;;;5065733;28;20040;-74
2021/11/30 03:52:50;;;;;;;28.70;18.70;;;51.90;2227.20;;;;;;5063474;28;20053;-74
2021/11/30 03:55:17;;;;;;;25.98;15.73;;;51.90;2227.20;;;;;;5054748;28;20033;-74
2021/11/30 03:57:43;;;;;;;23.98;14.65;;;51.90;2227.20;;;;;;5055069;28;20025;-74
2021/11/30 04:00:11;;;;;;;29.08;15.88;;;51.90;2227.20;;;;;;5067857;28;20025;-74
2021/11/30 04:02:38;;;;;;;25.00;14.73;;;51.90;2227.20;;;;;;5044105;28;20029;-75
2021/11/30 04:05:08;;;;;;;27.42;16.02;;;51.90;2227.20;;;;;;5054518;28;20021;-75
2021/11/30 04:07:34;;;;;;;20.77;13.80;;;52.00;2227.20;;;;;;5071176;28;20039;-74
2021/11/30 04:10:00;;;;;;;23.25;14.55;;;52.00;2227.20;;;;;;5063804;28;20777;-74
2021/11/30 04:12:25;;;;;;;23.48;14.82;;;51.90;2227.20;;;;;;5052755;28;20387;-74
2021/11/30 04:14:51;;;;;;;21.90;14.40;;;52.00;2227.20;;;;;;5074453;28;20536;-74
2021/11/30 04:17:17;;;;;;;23.10;13.63;;;51.90;2227.20;;;;;;5057054;28;20091;-74
2021/11/30 04:19:43;;;;;;;29.52;14.63;;;51.90;2227.20;;;;;;5070323;28;20023;-75
2021/11/30 04:22:09;;;;;;;22.75;14.63;;;51.90;2227.20;;;;;;5074128;28;20033;-75
2021/11/30 04:24:36;;;;;;;20.10;12.38;;;52.00;2227.20;;;;;;5073796;28;20024;-74
2021/11/30 04:27:02;;;;;;;22.33;13.90;;;51.90;2227.20;;;;;;5055890;28;20078;-74
2021/11/30 04:29:28;;;;;;;21.40;13.35;;;52.00;2227.20;;;;;;5074271;28;20036;-75
2021/11/30 04:31:55;;;;;;;23.92;13.95;;;52.00;2227.20;;;;;;5071923;28;20040;-74
2021/11/30 04:34:21;;;;;;;16.85;11.00;;;52.00;2227.20;;;;;;5043487;28;20123;-76
2021/11/30 04:36:46;;;;;;;18.55;11.02;;;52.00;2227.20;;;;;;5074218;28;20099;-76
2021/11/30 04:39:12;;;;;;;24.08;13.07;;;52.00;2227.20;;;;;;5055271;28;20129;-76
2021/11/30 04:41:40;;;;;;;17.17;10.60;;;52.00;2227.20;;;;;;5056237;28;20016;-76
2021/11/30 04:44:06;;;;;;;20.45;11.77;;;51.90;2227.20;;;;;;5055924;28;20498;-75
2021/11/30 04:46:42;;;;;;;25.83;12.77;;;51.90;2227.20;;;;;;5074216;28;20168;-76
2021/11/30 04:51:55;;;;;;;17.92;11.10;;;51.90;2227.20;;;;;;4972724;28;20034;-76
2021/11/30 04:54:22;;;;;;;19.10;10.85;;;51.90;2227.20;;;;;;4973325;28;20058;-75
2021/11/30 04:56:48;;;;;;;17.83;11.98;;;52.00;2227.20;;;;;;4988715;28;20042;-76
2021/11/30 04:59:14;;;;;;;20.38;12.02;;;52.00;2227.20;;;;;;4992304;28;20477;-75
2021/11/30 05:01:40;;;;;;;20.88;11.70;;;51.90;2227.20;;;;;;4985014;28;20045;-75
2021/11/30 05:04:05;;;;;;;22.40;12.15;;;52.00;2227.20;;;;;;5012144;28;20505;-76
2021/11/30 05:06:31;;;;;;;18.13;11.57;;;51.90;2227.20;;;;;;5011845;28;20097;-76
2021/11/30 05:09:01;;;;;;;19.75;13.27;;;51.90;2227.20;;;;;;4995123;28;20033;-75
2021/11/30 05:11:27;;;;;;;19.80;11.57;;;52.00;2227.20;;;;;;5003897;28;20037;-75
2021/11/30 05:13:53;;;;;;;19.15;10.60;;;52.00;2227.20;;;;;;4991689;28;20038;-75
2021/11/30 05:16:19;;;;;;;16.98;11.23;;;51.90;2227.20;;;;;;4991664;28;20146;-75
2021/11/30 05:18:44;;;;;;;16.17;11.88;;;51.90;2227.20;;;;;;4991810;28;20034;-75
2021/11/30 05:21:10;;;;;;;20.23;12.65;;;51.90;2227.20;;;;;;4992085;28;20031;-75
2021/11/30 05:23:36;;;;;;;22.15;11.60;;;51.90;2227.20;;;;;;4978414;28;20045;-76
2021/11/30 05:26:05;;;;;;;25.08;11.65;;;51.90;2227.20;;;;;;4966508;28;20030;-75
2021/11/30 05:28:33;;;;;;;19.23;11.98;;;51.90;2227.20;;;;;;5009127;28;20036;-75
2021/11/30 05:30:59;;;;;;;24.35;11.65;;;51.90;2227.20;;;;;;5058784;28;20029;-75
2021/11/30 05:33:26;;;;;;;15.93;11.45;;;51.90;2227.20;;;;;;5073043;28;20032;-75
2021/11/30 05:35:51;;;;;;;20.17;12.02;;;51.90;2227.20;;;;;;5066381;28;20029;-75
2021/11/30 05:38:17;;;;;;;18.92;13.02;;;51.90;2227.20;;;;;;5052947;28;20518;-75
2021/11/30 05:40:43;;;;;;;18.80;11.60;;;51.80;2227.20;;;;;;5056713;28;20479;-75
2021/11/30 05:43:11;;;;;;;21.17;11.82;;;51.80;2227.20;;;;;;5054882;28;20028;-75
2021/11/30 05:45:37;;;;;;;20.55;12.93;;;51.80;2227.20;;;;;;5054424;28;20105;-75
2021/11/30 05:48:03;;;;;;;20.77;12.95;;;51.80;2227.20;;;;;;5053278;28;20056;-75
2021/11/30 05:50:29;;;;;;;22.40;13.13;;;51.80;2227.20;;;;;;5066520;28;20036;-76
2021/11/30 05:52:56;;;;;;;22.40;12.38;;;51.80;2227.20;;;;;;5071814;28;20048;-76
2021/11/30 05:55:22;;;;;;;21.63;14.20;;;51.90;2227.20;;;;;;5054061;28;20032;-76
2021/11/30 05:57:48;;;;;;;18.88;12.05;;;51.90;2227.20;;;;;;5053574;28;20024;-76
2021/11/30 06:00:16;;;;;;;22.48;12.73;;;51.90;2227.20;;;;;;5052132;28;20406;-76
2021/11/30 06:05:36;;;;;;;21.45;11.65;;;51.90;2227.20;;;;;;5048615;28;20035;-76
2021/11/30 06:08:05;;;;;;;22.42;14.10;;;51.90;2227.20;;;;;;5070869;28;20025;-76
2021/11/30 06:10:31;;;;;;;19.00;12.77;;;51.90;2227.20;;;;;;5053827;28;20025;-77
2021/11/30 06:12:57;;;;;;;17.48;11.52;;;51.90;2227.20;;;;;;5053154;28;20037;-76
2021/11/30 06:15:22;;;;;;;23.83;12.63;;;51.90;2227.20;;;;;;5071472;28;20103;-76
2021/11/30 06:17:48;;;;;;;18.75;10.48;;;51.80;2227.20;;;;;;5054241;28;20372;-76
2021/11/30 06:20:16;;;;;;;17.83;11.48;;;51.90;2227.20;;;;;;5054024;28;20459;-76
2021/11/30 06:22:42;;;;;;;23.48;13.02;;;51.90;2227.20;;;;;;5054153;28;20078;-75
2021/11/30 06:25:08;;;;;;;18.77;12.20;;;51.90;2227.20;;;;;;5071409;28;20419;-76
2021/11/30 06:27:35;;;;;;;21.92;12.15;;;51.90;2227.20;;;;;;5071714;28;20403;-76
2021/11/30 06:30:01;;;;;;;18.52;13.32;;;51.90;2227.20;;;;;;5053172;28;20036;-76
2021/11/30 06:32:27;;;;;;;19.10;12.98;;;52.00;2227.20;;;;;;5071339;28;20143;-76
2021/11/30 06:34:53;;;;;;;20.15;11.82;;;52.00;2227.20;;;;;;5060780;28;20510;-76
2021/11/30 06:37:19;;;;;;;16.95;10.02;;;52.00;2227.20;;;;;;5046303;28;20123;-76
2021/11/30 06:39:45;;;;;;;31.77;12.13;;;52.10;2227.20;;;;;;5053339;28;20021;-78
2021/11/30 06:42:11;;;;;;;19.45;11.68;;;52.10;2227.20;;;;;;5071414;28;20502;-75
2021/11/30 06:44:37;;;;;;;20.70;11.38;;;52.10;2227.20;;;;;;5070954;28;20028;-76
2021/11/30 06:47:04;;;;;;;20.45;10.23;;;52.10;2227.20;;;;;;5071316;28;20032;-75
2021/11/30 06:49:30;;;;;;;17.63;11.90;;;52.10;2227.20;;;;;;5053627;28;20032;-76
2021/11/30 06:51:56;;;;;;;17.33;10.63;;;52.10;2227.20;;;;;;5053440;28;20078;-77
2021/11/30 06:54:23;;;;;;;17.75;11.60;;;76.80;2227.20;;;;;;5071540;28;20059;-75
2021/11/30 06:56:48;;;;;;;15.48;10.25;;;76.80;2227.20;;;;;;5052511;28;20479;-76
2021/11/30 06:59:14;;;;;;;15.93;10.50;;;76.80;2227.20;;;;;;5053321;28;20027;-75
2021/11/30 07:01:42;;;;;;;18.60;11.65;;;76.90;2227.20;;;;;;5071639;28;20020;-75
2021/11/30 07:04:09;;;;;;;20.05;11.25;;;76.90;2227.20;;;;;;5055758;28;20029;-76
2021/11/30 07:06:48;;;;;;;20.10;11.82;;;77.00;2227.20;;;;;;5057871;28;20090;-75
2021/11/30 07:14:12;;;;;;;15.43;9.52;;;77.10;2227.20;;;;;;5073620;28;20060;-76
2021/11/30 07:16:38;;;;;;;18.23;10.82;;;77.20;2227.20;;;;;;5055538;28;20028;-76
2021/11/30 07:19:04;;;;;;;17.38;10.15;;;77.20;2227.20;;;;;;5072275;28;20029;-75
2021/11/30 07:21:30;;;;;;;15.77;9.85;;;77.20;2227.20;;;;;;5054699;28;20127;-75
2021/11/30 07:23:56;;;;;;;21.45;11.30;;;77.30;2227.20;;;;;;5075349;28;20051;-75
2021/11/30 07:26:23;;;;;;;19.30;10.95;;;77.30;2227.20;;;;;;5056777;28;20064;-76
2021/11/30 07:28:49;;;;;;;15.38;10.60;;;77.30;2227.20;;;;;;5075055;28;20036;-76
2021/11/30 07:31:16;;;;;;;20.15;11.38;;;77.40;2227.20;;;;;;5074456;28;20069;-76
2021/11/30 07:33:47;;;;;;;18.70;9.55;;;77.50;2227.20;;;;;;5057125;28;20025;-75
2021/11/30 07:36:16;;;;;;;13.90;8.90;;;77.50;2227.20;;;;;;5051332;28;20036;-76
2021/11/30 07:38:44;;;;;;;18.50;9.40;;;77.50;2227.20;;;;;;5056848;28;20097;-76
2021/11/30 07:41:10;;;;;;;20.10;8.88;;;77.60;2227.20;;;;;;5057082;28;20040;-76
2021/11/30 07:43:38;;;;;;;19.42;9.70;;;77.60;2227.20;;;;;;5056965;28;20024;-76
2021/11/30 07:46:04;;;;;;;18.00;9.85;;;77.60;2227.20;;;;;;5072244;28;20379;-76
2021/11/30 07:48:31;;;;;;;18.42;9.88;;;77.60;2227.20;;;;;;5074230;28;20033;-75
2021/11/30 07:50:57;;;;;;;12.90;8.65;;;77.70;2227.20;;;;;;5074956;28;20025;-76
2021/11/30 07:53:24;;;;;;;14.52;8.75;;;102.40;2227.20;;;;;;5040946;28;20136;-75
2021/11/30 07:55:51;;;;;;;22.25;11.18;;;102.40;2227.20;;;;;;5051323;28;20025;-76
2021/11/30 07:58:18;;;;;;;12.95;9.05;;;102.50;2227.20;;;;;;5053209;28;20078;-75
2021/11/30 08:00:45;;;;;;;13.73;8.73;;;102.50;2227.20;;;;;;5052725;28;20043;-76
2021/11/30 08:03:10;;;;;;;16.63;9.02;;;102.50;2227.20;;;;;;5035119;28;20518;-76
2021/11/30 08:05:36;;;;;;;16.40;10.40;;;102.60;2227.20;;;;;;5053882;28;20029;-76
2021/11/30 08:08:02;;;;;;;16.58;9.45;;;102.70;2227.20;;;;;;5054537;28;20090;-75
2021/11/30 08:10:29;;;;;;;16.90;9.77;;;102.70;2227.20;;;;;;5053089;28;20029;-73
2021/11/30 08:12:55;;;;;;;21.75;11.38;;;102.80;2227.20;;;;;;5035615;28;20081;-76
2021/11/30 08:15:21;;;;;;;17.40;9.98;;;102.90;2227.20;;;;;;5052833;28;20028;-75
2021/11/30 08:17:47;;;;;;;25.25;9.63;;;102.90;2227.20;;;;;;5035588;28;20029;-76
2021/11/30 08:20:13;;;;;;;13.82;9.05;;;102.90;2227.20;;;;;;5052888;28;20380;-76
2021/11/30 08:22:41;;;;;;;14.15;10.07;;;102.90;2227.20;;;;;;5053687;28;20443;-76
2021/11/30 08:25:09;;;;;;;15.18;9.90;;;103.00;2227.20;;;;;;5036072;28;20365;-75
2021/11/30 08:27:35;;;;;;;15.60;8.13;;;103.10;2227.20;;;;;;5052992;28;20024;-76
2021/11/30 08:30:01;;;;;;;16.98;9.05;;;103.10;2227.20;;;;;;5036056;28;20032;-76
2021/11/30 08:32:28;;;;;;;15.70;9.30;;;103.20;2227.20;;;;;;5035485;28;20029;-75
2021/11/30 08:34:55;;;;;;;13.88;8.70;;;103.30;2227.20;;;;;;5052851;28;20044;-76
2021/11/30 08:37:22;;;;;;;15.50;9.70;;;103.20;2227.20;;;;;;5053447;28;20114;-75
2021/11/30 08:39:49;;;;;;;16.40;10.07;;;128.00;2252.80;;;;;;5052170;28;20112;-74
2021/11/30 08:42:17;;;;;;;15.38;8.93;;;128.00;2252.80;;;;;;5052343;28;20043;-74
2021/11/30 08:44:43;;;;;;;14.48;9.60;;;128.10;2252.80;;;;;;5053589;28;20103;-74
2021/11/30 08:47:11;;;;;;;15.15;9.90;;;128.20;2252.80;;;;;;5035881;28;20513;-73
2021/11/30 08:49:37;;;;;;;15.82;8.70;;;128.20;2252.80;;;;;;5053550;28;20064;-73
2021/11/30 08:52:05;;;;;;;18.20;10.55;;;128.30;2252.80;;;;;;5035539;28;20048;-74
2021/11/30 08:54:32;;;;;;;18.67;10.25;;;128.70;2252.80;;;;;;5035755;28;20079;-74
2021/11/30 08:56:59;;;;;;;13.10;9.20;;;153.60;2252.80;;;;;;5053556;28;20407;-75
2021/11/30 08:59:25;;;;;;;17.33;10.45;;;153.90;2252.80;;;;;;5049465;28;20113;-75
2021/11/30 09:01:52;;;;;;;18.35;10.32;;;153.90;2252.80;;;;;;5050345;28;20115;-75
2021/11/30 09:04:18;;;;;;;16.00;10.57;;;153.70;2252.80;;;;;;5017801;28;20081;-75
2021/11/30 09:06:43;;;;;;;14.70;9.65;;;128.90;2252.80;;;;;;5053745;28;20024;-75
2021/11/30 09:09:10;;;;;;;16.88;10.82;;;153.90;2252.80;;;;;;5053472;28;20043;-75
2021/11/30 09:11:38;;;;;;;17.35;10.88;;;154.10;2252.80;;;;;;5035365;28;20026;-75
2021/11/30 09:14:05;;;;;;;16.48;10.13;;;154.20;2252.80;;;;;;5035500;28;20101;-74
2021/11/30 09:16:32;;;;;;;14.25;10.20;;;179.30;2252.80;;;;;;5051226;28;20037;-75
2021/11/30 09:18:58;;;;;;;16.33;11.07;;;179.40;2252.80;;;;;;5050147;28;20044;-75
2021/11/30 09:21:26;;;;;;;14.27;9.55;;;179.50;2252.80;;;;;;5027999;28;20510;-75
2021/11/30 09:23:53;;;;;;;16.08;9.30;;;179.50;2252.80;;;;;;5034058;28;20377;-75
2021/11/30 09:26:19;;;;;;;16.02;10.65;;;179.60;2252.80;;;;;;5049897;28;20060;-75
2021/11/30 09:28:45;;;;;;;15.15;9.98;;;179.70;2252.80;;;;;;5033515;28;20502;-75
2021/11/30 09:31:11;;;;;;;17.95;11.35;;;179.60;2252.80;;;;;;5052299;28;20499;-75
2021/11/30 09:33:39;;;;;;;12.43;8.70;;;179.80;2252.80;;;;;;5033968;28;20029;-74
2021/11/30 09:36:07;;;;;;;18.65;10.50;;;179.70;2252.80;;;;;;5034854;28;20028;-75
2021/11/30 09:38:33;;;;;;;16.67;11.30;;;179.80;2252.80;;;;;;5051877;28;20021;-75
2021/11/30 09:41:01;;;;;;;20.27;10.70;;;179.80;2252.80;;;;;;5034685;28;20388;-76
2021/11/30 09:43:29;;;;;;;19.52;11.30;;;179.90;2252.80;;;;;;5049291;28;20029;-76
2021/11/30 09:45:59;;;;;;;13.18;9.57;;;204.80;2252.80;;;;;;5046262;28;20032;-75
2021/11/30 09:48:26;;;;;;;16.13;10.25;;;180.00;2252.80;;;;;;5048967;28;20032;-75
2021/11/30 09:50:52;;;;;;;15.20;10.07;;;204.80;2252.80;;;;;;5033949;28;20162;-75
2021/11/30 09:53:19;;;;;;;13.52;10.32;;;204.90;2252.80;;;;;;5033036;28;20531;-75
2021/11/30 09:55:47;;;;;;;13.13;8.52;;;205.20;2252.80;;;;;;5030594;28;20045;-75
2021/11/30 09:58:15;;;;;;;11.45;8.02;;;205.40;2252.80;;;;;;5049595;28;20104;-76
2021/11/30 10:00:43;;;;;;;13.23;8.20;;;205.40;2252.80;;;;;;5047645;28;20017;-77
2021/11/30 10:03:09;;;;;;;13.57;9.10;;;205.30;2252.80;;;;;;5051505;28;20009;-75
2021/11/30 10:05:36;;;;;;;14.48;9.52;;;205.60;2252.80;;;;;;5050969;28;20028;-75
2021/11/30 10:08:03;;;;;;;13.65;9.32;;;230.40;2252.80;;;;;;5036116;28;20025;-75
2021/11/30 10:10:39;;;;;;;11.80;8.38;;;205.70;2252.80;;;;;;5033734;28;20412;-74
2021/11/30 10:13:05;;;;;;;12.57;8.18;;;205.00;2252.80;;;;;;5051914;28;20025;-75
2021/11/30 10:15:55;;;;;;;12.90;8.55;;;205.10;2252.80;;;;;;5061593;28;20032;-75
2021/11/30 10:18:25;;;;;;;14.48;9.15;;;205.50;2252.80;;;;;;5038483;28;20068;-75
2021/11/30 10:21:13;;;;;;;12.07;8.55;;;205.70;2252.80;;;;;;5043569;28;20036;-75
2021/11/30 10:23:56;;;;;;;12.55;9.60;;;230.50;2252.80;;;;;;5052225;28;20056;-75
2021/11/30 10:26:30;;;;;;;14.43;8.77;;;205.60;2252.80;;;;;;5052138;28;20024;-75
2021/11/30 10:29:01;;;;;;;12.82;9.20;;;205.40;2252.80;;;;;;5051874;28;20104;-75
2021/11/30 10:31:37;;;;;;;13.93;9.88;;;230.80;2252.80;;;;;;5037811;28;20038;-74
2021/11/30 10:34:10;;;;;;;14.48;9.88;;;230.40;2252.80;;;;;;5051007;28;20029;-75
2021/11/30 10:36:52;;;;;;;14.20;9.52;;;205.30;2252.80;;;;;;5049119;28;20079;-75
2021/11/30 10:39:27;;;;;;;12.00;8.00;;;204.90;2252.80;;;;;;5040673;28;20032;-75
2021/11/30 10:42:21;;;;;;;19.30;10.00;;;205.30;2252.80;;;;;;5027176;28;20449;-75
2021/11/30 10:44:53;;;;;;;15.32;9.98;;;230.70;2252.80;;;;;;5027231;28;20388;-75
2021/11/30 10:47:21;;;;;;;12.50;7.65;;;256.00;2252.80;;;;;;5031722;28;20045;-75
2021/11/30 10:49:57;;;;;;;15.55;9.40;;;230.70;2252.80;;;;;;5050520;28;20032;-74
2021/11/30 10:52:29;;;;;;;12.10;7.78;;;205.40;2252.80;;;;;;5032447;28;20179;-75
2021/11/30 10:55:08;;;;;;;11.55;7.32;;;205.10;2252.80;;;;;;5033818;28;20029;-75
2021/11/30 10:57:35;;;;;;;15.10;8.05;;;205.30;2252.80;;;;;;5028864;28;20075;-75
2021/11/30 11:00:19;;;;;;;16.98;8.35;;;230.70;2252.80;;;;;;5031988;28;20499;-75
2021/11/30 11:05:46;;;;;;;11.85;8.23;;;231.00;2252.80;;;;;;5001856;28;20463;-75
2021/11/30 11:08:19;;;;;;;11.05;7.63;;;256.00;2252.80;;;;;;4982459;28;20473;-75
2021/11/30 11:10:55;;;;;;;10.50;6.78;;;256.00;2252.80;;;;;;5001195;28;20099;-75
2021/11/30 11:13:29;;;;;;;11.73;7.70;;;231.20;2252.80;;;;;;4998188;28;20034;-75
2021/11/30 11:16:04;;;;;;;9.95;6.80;;;231.20;2252.80;;;;;;5003339;28;20556;-76
2021/11/30 11:18:30;;;;;;;10.52;7.55;;;231.20;2252.80;;;;;;4974719;28;20489;-75
2021/11/30 11:21:29;;;;;;;11.35;7.82;;;231.20;2252.80;;;;;;5000712;28;20039;-75
2021/11/30 11:24:13;;;;;;;10.52;7.50;;;256.30;2252.80;;;;;;4992918;28;21406;-75
2021/11/30 11:26:54;;;;;;;11.93;8.40;;;256.30;2252.80;;;;;;4976160;28;20026;-75
2021/11/30 11:29:21;;;;;;;14.07;8.75;;;256.50;2252.80;;;;;;5001707;28;20042;-75
2021/11/30 11:31:53;;;;;;;13.77;9.65;;;256.70;2252.80;;;;;;5002506;28;20470;-75
2021/11/30 11:34:23;;;;;;;15.70;8.68;;;256.80;2252.80;;;;;;4989740;28;20210;-75
2021/11/30 11:36:51;;;;;;;12.55;8.32;;;256.80;2252.80;;;;;;4999901;28;20053;-75
2021/11/30 11:39:19;;;;;;;17.00;9.50;;;256.80;2252.80;;;;;;4998599;28;20031;-75
2021/11/30 11:41:49;;;;;;;12.77;7.53;;;281.60;2278.40;;;;;;5015059;28;20534;-75
2021/11/30 11:44:15;;;;;;;11.93;7.90;;;281.70;2278.40;;;;;;5050867;28;20071;-74
2021/11/30 11:46:41;;;;;;;13.70;7.00;;;256.40;2252.80;;;;;;5028402;28;20037;-75
2021/11/30 11:49:10;;;;;;;13.98;8.20;;;256.00;2252.80;;;;;;5037203;28;20067;-75
2021/11/30 11:51:56;;;;;;;12.25;7.47;;;256.30;2252.80;;;;;;5047665;28;20369;-76
2021/11/30 11:54:35;;;;;;;10.27;7.33;;;256.10;2252.80;;;;;;5034761;28;20029;-75
2021/11/30 11:57:05;;;;;;;11.25;6.28;;;256.40;2252.80;;;;;;5028579;28;20057;-75
2021/11/30 11:59:39;;;;;;;10.77;8.15;;;256.30;2252.80;;;;;;5017330;28;20140;-76
2021/11/30 12:02:21;;;;;;;10.98;7.68;;;256.10;2252.80;;;;;;4999798;28;20030;-75
2021/11/30 12:04:51;;;;;;;14.02;10.15;;;256.50;2252.80;;;;;;5014855;28;20029;-75
2021/11/30 12:07:18;;;;;;;15.55;8.82;;;256.30;2252.80;;;;;;5012168;28;20060;-75
2021/11/30 12:09:44;;;;;;;11.45;6.07;;;256.70;2252.80;;;;;;5054546;28;20031;-75
2021/11/30 12:12:10;;;;;;;10.93;6.72;;;256.90;2252.80;;;;;;5021673;28;20490;-75
2021/11/30 12:14:39;;;;;;;10.20;7.28;;;281.60;2278.40;;;;;;5014481;28;20154;-75
2021/11/30 12:17:07;;;;;;;8.93;6.32;;;256.40;2252.80;;;;;;5030118;28;20029;-76
2021/11/30 12:19:44;;;;;;;9.95;7.38;;;256.40;2252.80;;;;;;5030990;28;20480;-75
2021/11/30 12:22:30;;;;;;;9.85;7.15;;;231.20;2252.80;;;;;;5031882;28;20044;-75
2021/11/30 12:24:56;;;;;;;12.93;7.88;;;256.20;2252.80;;;;;;5007420;28;20061;-75
2021/11/30 12:27:31;;;;;;;22.42;9.68;;;256.60;2252.80;;;;;;5026249;28;20033;-75
2021/11/30 12:29:56;;;;;;;12.80;7.65;;;256.30;2252.80;;;;;;5032968;28;20030;-75
2021/11/30 12:32:30;;;;;;;10.13;7.28;;;256.60;2252.80;;;;;;5013279;28;20129;-75
2021/11/30 12:35:04;;;;;;;8.32;6.30;;;256.80;2252.80;;;;;;5030453;28;20112;-76
2021/11/30 12:37:32;;;;;;;12.20;8.40;;;256.60;2252.80;;;;;;5020235;28;20029;-76